• Join FlightAware (Why Join?)
  • Login
  • US Flag 
03:21AM EDT


 

Airport Tracker/Info


-or-


 

Live Flight TrackerFlight Track Log ✈ N3442T ✈ 25-May-2013 ✈ KLYH - KSWF

Flight Track Log - Related Links

Times and Time Zones

All times are in EDT time to prevent confusion due to time zone crossing. See the N3442T flight status page for this flight to view local times or setup timezone preferences in your user account.

Time Position Orientation Groundspeed Altitude Reporting Facility
EDT Latitude Longitude Course Direction KTS MPH feet Rate Location/Type
02:25PM 37.5783 -79.1477 North  Level FlightAware Approximate
02:26PM 37.6220 -79.1389 North  Level FlightAware Approximate
02:27PM 37.6657 -79.1302 North  Level FlightAware Approximate
02:28PM 37.7094 -79.1215 North  Level FlightAware Approximate
02:29PM 37.7533 -79.1147 North  Level FlightAware Approximate
02:30PM 37.7974 -79.1103 North  Level FlightAware Approximate
02:31PM 37.8415 -79.1059 North  Level FlightAware Approximate
02:32PM 37.8856 -79.1014 North  Level FlightAware Approximate
02:33PM 37.9253 -79.0801 32° Northeast  Level FlightAware Approximate
02:33PM 37.7500 -79.1500 32° Northeast 147 169 6,900  Level Potomac TRACON
02:34PM 37.9629 -79.0505 32° Northeast  Level FlightAware Approximate
02:34PM 37.7833 -79.1333 22° Northeast 152 175 7,000  Level Potomac TRACON
02:35PM 38.0004 -79.0209 32° Northeast  Level FlightAware Approximate
02:35PM 37.8333 -79.1333 360° North 158 182 7,000  Level Potomac TRACON
02:36PM 38.0380 -78.9912 32° Northeast  Level FlightAware Approximate
02:36PM 37.8667 -79.1167 22° Northeast 155 178 7,000  Level Potomac TRACON
02:37PM 38.0756 -78.9615 32° Northeast  Level FlightAware Approximate
02:37PM 37.9167 -79.1000 15° North 157 181 7,000  Level Potomac TRACON
02:38PM 38.1131 -78.9318 32° Northeast  Level FlightAware Approximate
02:38PM 37.9500 -79.0667 38° Northeast 163 188 7,000  Level Potomac TRACON
02:39PM 37.9833 -79.0333 38° Northeast 170 196 7,000  Level Potomac TRACON
02:40PM 38.0333 -79.0167 15° North 158 182 7,000  Level Potomac TRACON
02:41PM 38.0667 -78.9833 38° Northeast 158 182 7,000  Level Potomac TRACON
02:42PM 38.1000 -78.9500 38° Northeast 156 180 7,000  Level Potomac TRACON
02:43PM 38.1500 -78.9167 28° Northeast 161 185 7,000  Level Potomac TRACON
02:44PM 38.1833 -78.9000 21° North 156 180 7,000  Level Potomac TRACON
02:45PM 38.2167 -78.8667 38° Northeast 162 186 7,000  Level Potomac TRACON
02:46PM 38.2500 -78.8333 38° Northeast 154 177 7,000  Level Potomac TRACON
02:47PM 38.3000 -78.8167 15° North 151 174 7,000  Level Potomac TRACON
02:48PM 38.3333 -78.7833 38° Northeast 162 186 7,000  Level Potomac TRACON
02:49PM 38.3667 -78.7500 38° Northeast 164 189 7,000  Level Potomac TRACON
02:50PM 38.4000 -78.7167 38° Northeast 155 178 7,000  Level Potomac TRACON
02:51PM 38.4333 -78.7000 21° North 154 177 7,000  Level Potomac TRACON
02:52PM 38.4833 -78.6667 28° Northeast 169 194 7,000  Level Potomac TRACON
02:53PM 38.5167 -78.6333 38° Northeast 155 178 7,000  Level Potomac TRACON
02:54PM 38.5500 -78.6000 38° Northeast 157 181 7,000  Level Potomac TRACON
02:55PM 38.6000 -78.5667 28° Northeast 168 193 7,000  Level Potomac TRACON
02:56PM 38.6333 -78.5500 21° North 161 185 7,000  Level Potomac TRACON
02:57PM 38.6667 -78.5167 38° Northeast 167 192 7,000  Level Potomac TRACON
02:58PM 38.7000 -78.4833 38° Northeast 161 185 7,000  Level Potomac TRACON
02:59PM 38.7333 -78.4500 38° Northeast 162 186 7,000  Level Potomac TRACON
03:00PM 38.7833 -78.4167 27° Northeast 160 184 7,000  Level Potomac TRACON
03:01PM 38.8167 -78.3833 38° Northeast 165 190 7,000  Level Potomac TRACON
03:02PM 38.8500 -78.3500 38° Northeast 158 182 7,000  Level Potomac TRACON
03:03PM 38.8833 -78.3167 38° Northeast 153 176 7,000 180 Level Potomac TRACON
03:04PM 38.9167 -78.2833 38° Northeast 158 182 7,400 600 Climbing Potomac TRACON
03:05PM 38.9500 -78.2500 38° Northeast 136 157 8,200 780 Climbing Potomac TRACON
03:06PM 38.9833 -78.2167 38° Northeast 136 157 9,000 360 Climbing Potomac TRACON
03:07PM 39.0167 -78.2000 21° North 143 165 9,000  Level Potomac TRACON
03:08PM 39.0500 -78.1667 38° Northeast 155 178 9,000  Level Potomac TRACON
03:09PM 39.0833 -78.1333 38° Northeast 141 162 9,000  Level Potomac TRACON
03:10PM 39.1167 -78.1000 38° Northeast 126 145 9,000  Level Potomac TRACON
03:11PM 39.1333 -78.0833 38° Northeast 135 155 9,000  Level Potomac TRACON
03:12PM 39.1667 -78.0500 38° Northeast 143 165 9,000  Level Potomac TRACON
03:13PM 39.2000 -78.0167 38° Northeast 163 188 9,000  Level Potomac TRACON
03:14PM 39.2333 -77.9833 38° Northeast 154 177 9,000  Level Potomac TRACON
03:15PM 39.2667 -77.9500 38° Northeast 145 167 9,000  Level Potomac TRACON
03:16PM 39.3000 -77.9167 38° Northeast 146 168 9,000  Level Potomac TRACON
03:17PM 39.3333 -77.8833 38° Northeast 148 170 9,000  Level Potomac TRACON
03:18PM 39.3667 -77.8667 21° North 140 161 9,000  Level Potomac TRACON
03:19PM 39.4000 -77.8333 38° Northeast 147 169 9,000  Level Potomac TRACON
03:20PM 39.4333 -77.7833 49° Northeast 158 182 9,000  Level Potomac TRACON
03:21PM 39.4500 -77.7333 67° East 153 176 9,000  Level Potomac TRACON
03:22PM 39.4833 -77.7000 38° Northeast 152 175 9,000  Level Potomac TRACON
03:23PM 39.5000 -77.6500 67° East 161 185 9,000  Level Potomac TRACON
03:24PM 39.5333 -77.6000 49° Northeast 161 185 9,000 -60 Level Potomac TRACON
03:26PM 39.5806 -77.5189 53° Northeast 153 176 8,900 -60 Descending New York Center
03:27PM 39.6081 -77.4758 50° Northeast 148 170 8,900  Level New York Center
03:28PM 39.6311 -77.4375 52° Northeast 148 170 8,900  Level New York Center
03:29PM 39.6567 -77.3914 54° Northeast 143 165 8,900  Level New York Center
03:30PM 39.6772 -77.3583 51° Northeast 138 159 8,900  Level New York Center
03:31PM 39.7003 -77.3200 52° Northeast 121 139 8,900  Level New York Center
03:32PM 39.7164 -77.2917 54° Northeast 115 132 8,900  Level New York Center
03:33PM 39.7372 -77.2558 53° Northeast 110 127 8,900  Level New York Center
03:34PM 39.7553 -77.2278 50° Northeast 105 121 8,900  Level New York Center
03:35PM 39.7786 -77.1839 55° Northeast 124 143 8,900  Level New York Center
03:36PM 39.8014 -77.1483 50° Northeast 124 143 8,900  Level New York Center
03:37PM 39.8244 -77.1069 54° Northeast 124 143 9,000  Climbing New York Center
03:38PM 39.8453 -77.0711 53° Northeast 124 143 9,000  Level New York Center
03:39PM 39.8744 -77.0278 49° Northeast 135 155 9,000  Level New York Center
03:40PM 39.9044 -77.0169 15° North 124 143 9,000  Level New York Center
03:41PM 39.9417 -76.9794 38° Northeast 132 152 9,000  Level New York Center
03:42PM 39.9744 -76.9500 35° Northeast 148 170 9,000  Level New York Center
03:43PM 40.0139 -76.9156 34° Northeast 156 180 9,000  Level New York Center
03:44PM 40.0447 -76.8856 37° Northeast 156 180 9,000  Level New York Center
03:45PM 40.0819 -76.8483 37° Northeast 156 180 9,000  Level New York Center
03:46PM 40.1128 -76.8183 37° Northeast 156 180 9,000  Level New York Center
03:47PM 40.1500 -76.7836 35° Northeast 156 180 9,000  Level New York Center
03:48PM 40.1806 -76.7536 37° Northeast 156 180 9,000  Level New York Center
03:49PM 40.2133 -76.7236 35° Northeast 151 174 9,000  Level New York Center
03:50PM 40.2461 -76.6939 35° Northeast 144 166 9,000  Level New York Center
03:51PM 40.2792 -76.6586 39° Northeast 139 160 9,000  Level New York Center
03:52PM 40.3119 -76.6289 35° Northeast 139 160 9,000  Level New York Center
03:53PM 40.3450 -76.5961 37° Northeast 139 160 9,000  Level New York Center
03:54PM 40.3733 -76.5686 36° Northeast 139 160 9,000  Level New York Center
03:55PM 40.4067 -76.5278 43° Northeast 139 160 9,000  Level New York Center
03:56PM 40.4239 -76.4719 68° East 155 178 9,000  Level New York Center
03:57PM 40.4436 -76.4108 67° East 169 194 9,000  Level New York Center
03:58PM 40.4564 -76.3600 72° East 163 188 9,000  Level New York Center
03:59PM 40.4758 -76.2989 67° East 163 188 9,000  Level New York Center
04:00PM 40.4956 -76.2347 68° East 170 196 9,000  Level New York Center
04:01PM 40.5103 -76.1842 69° East 170 196 9,000  Level New York Center
04:02PM 40.5256 -76.1281 70° East 160 184 9,000  Level New York Center
04:03PM 40.5447 -76.0694 67° East 160 184 9,000  Level New York Center
04:04PM 40.5597 -76.0133 71° East 160 184 9,000 -180 Level New York Center
04:05PM 40.5789 -75.9572 66° East 154 177 8,700 -360 Descending New York Center
04:06PM 40.5939 -75.9036 70° East 168 193 8,300 -480 Descending New York Center
04:07PM 40.6133 -75.8394 68° East 173 199 7,800 -540 Descending New York Center
04:08PM 40.6328 -75.7700 70° East 178 205 7,300 -540 Descending New York Center
04:09PM 40.6522 -75.7083 67° East 178 205 6,800 -540 Descending New York Center
04:10PM 40.6714 -75.6469 68° East 184 212 6,300 -420 Descending New York Center
04:11PM 40.6861 -75.5903 71° East 177 204 6,000 -300 Descending New York Center